Terminal Aerodrome Forecast
Issued by NWS

Home | Current Version | Previous Version | Text Only | Print | Product List | Glossary On
Versions: 1 2 3 4 5 6 7 8 9 10 11 12 13 14 15 16 17 18 19 20
000
FTUS45 KBOI 242336
TAFMYL
TAF
KMYL 242336Z 2500/2524 29008KT P6SM SKC
     FM250400 VRB05KT P6SM VCFG SCT002 BKN035
     FM252100 VRB03KT P6SM BKN050=

USA.gov is the U.S. government's official web portal to all federal, state and local government web resources and services.